createdAt,value
2017-09-11T12:33:05.287Z,47.40
2017-09-11T12:35:32.460Z,46.20
2017-09-11T12:37:58.533Z,50.10
2017-09-11T12:40:25.321Z,49.30
2017-09-11T12:42:51.387Z,49.10
2017-09-11T12:45:17.457Z,50.70
2017-09-11T12:47:43.505Z,47.50
2017-09-11T16:36:52.141Z,46.20
2017-09-11T16:39:18.184Z,84.50
2017-09-11T16:41:44.287Z,86.50
2017-09-11T16:44:10.376Z,84.20
2017-09-11T16:46:36.449Z,82.80
2017-09-11T16:49:02.511Z,82.80
2017-09-11T16:51:28.673Z,81.90
2017-09-11T16:53:54.741Z,82.80
2017-09-11T16:56:20.790Z,84.40
2017-09-11T16:58:46.889Z,84.00
2017-09-11T17:01:13.722Z,83.50
2017-09-11T17:03:40.058Z,83.40
2017-09-11T17:06:07.405Z,82.20
2017-09-11T17:08:34.042Z,82.90
2017-09-11T17:11:00.154Z,82.50
2017-09-11T17:13:26.325Z,83.00
2017-09-11T17:15:52.426Z,82.80
2017-09-11T17:18:25.799Z,83.40
2017-09-11T17:20:52.617Z,81.40
2017-09-11T17:23:18.693Z,81.30
2017-09-11T17:25:44.794Z,82.10
2017-09-11T17:28:10.892Z,82.00
2017-09-11T17:30:36.978Z,82.00
2017-09-11T17:33:04.182Z,81.50
2017-09-11T17:35:31.029Z,82.10
2017-09-11T17:37:57.199Z,81.30
2017-09-11T17:40:23.337Z,81.20
2017-09-11T17:42:50.268Z,82.20
2017-09-11T17:45:16.400Z,82.20
2017-09-11T17:47:42.545Z,82.10
2017-09-11T17:50:08.617Z,82.10
2017-09-11T17:52:35.465Z,82.80
2017-09-11T17:55:01.830Z,82.80
2017-09-11T17:57:27.888Z,82.10
2017-09-11T17:59:54.133Z,82.20
2017-09-11T18:02:20.185Z,82.90
2017-09-11T18:04:47.077Z,83.00
2017-09-11T18:07:13.129Z,83.00
2017-09-11T18:09:39.986Z,83.80
2017-09-11T18:12:06.064Z,83.60
2017-09-11T18:14:32.166Z,84.30
2017-09-11T18:16:58.231Z,83.10
2017-09-11T18:19:24.286Z,83.70
2017-09-11T18:21:50.334Z,82.80
2017-09-11T18:24:16.408Z,83.10
2017-09-11T18:26:43.192Z,82.60
2017-09-11T18:29:09.785Z,82.60
2017-09-11T18:31:35.853Z,83.00
2017-09-11T18:34:02.018Z,82.00
2017-09-11T18:36:28.057Z,81.50
2017-09-11T18:38:54.326Z,81.30
2017-09-11T18:41:20.451Z,80.40
2017-09-11T18:43:46.512Z,80.40
2017-09-11T18:46:12.542Z,80.70
2017-09-11T18:48:38.598Z,80.10
2017-09-11T18:51:04.882Z,80.30
2017-09-11T18:53:30.937Z,80.20
2017-09-11T18:55:56.988Z,81.00
2017-09-11T18:58:23.333Z,79.80
2017-09-11T19:00:49.393Z,79.50
2017-09-11T19:03:16.280Z,79.20
2017-09-11T19:05:43.097Z,79.00
2017-09-11T19:08:09.201Z,79.00
2017-09-11T19:10:35.329Z,78.40
2017-09-11T19:13:01.398Z,78.40
2017-09-11T19:15:27.460Z,78.50
2017-09-11T19:17:53.772Z,78.50
2017-09-11T19:20:19.885Z,78.30
2017-09-11T19:22:45.996Z,78.20
2017-09-11T19:25:12.089Z,78.20
2017-09-11T19:27:38.159Z,78.10
2017-09-11T19:30:04.210Z,77.80
2017-09-11T19:32:30.249Z,78.10
2017-09-11T19:34:56.310Z,78.20
2017-09-11T19:37:23.635Z,78.50
2017-09-11T19:39:50.723Z,78.50
2017-09-11T19:42:16.901Z,79.20
2017-09-11T19:44:43.005Z,79.00
2017-09-11T19:47:09.117Z,79.20
2017-09-11T19:49:35.214Z,79.20
2017-09-11T19:52:01.312Z,79.30
2017-09-11T19:54:27.449Z,78.90
2017-09-11T19:56:53.550Z,79.50
2017-09-11T19:59:19.625Z,79.50
2017-09-11T20:01:45.773Z,78.80
2017-09-11T20:04:11.841Z,79.20
2017-09-11T20:06:38.645Z,78.10
2017-09-11T20:09:04.682Z,78.10
2017-09-11T20:11:31.489Z,78.10
2017-09-11T20:13:57.593Z,78.10
2017-09-11T20:16:23.677Z,78.60
2017-09-11T20:18:49.761Z,78.30
2017-09-11T20:21:15.956Z,79.30
2017-09-11T20:23:42.761Z,79.10
2017-09-11T20:26:08.833Z,79.00
2017-09-11T20:28:34.914Z,78.80
2017-09-11T20:31:00.976Z,78.60
2017-09-11T20:33:27.141Z,79.60
2017-09-11T20:35:53.917Z,80.10
2017-09-11T20:38:19.985Z,80.10
2017-09-11T20:40:46.598Z,80.30
2017-09-11T20:43:12.735Z,80.30
2017-09-11T20:45:38.833Z,80.20
2017-09-11T20:48:04.884Z,80.30
2017-09-11T20:50:30.961Z,80.00
2017-09-11T20:52:57.040Z,79.80
2017-09-11T20:55:23.138Z,80.00
2017-09-11T20:57:49.977Z,79.80
2017-09-11T21:00:16.220Z,79.80
2017-09-11T21:02:42.303Z,79.90
2017-09-11T21:05:09.120Z,79.50
2017-09-11T21:07:35.212Z,79.50
2017-09-11T21:10:02.053Z,79.50
2017-09-11T21:12:28.998Z,79.70
2017-09-11T21:14:55.094Z,79.60
2017-09-11T21:17:21.140Z,79.60
2017-09-11T21:19:47.200Z,79.30
2017-09-11T21:22:13.262Z,79.40
2017-09-11T21:24:39.340Z,79.40
2017-09-11T21:27:05.398Z,79.50
2017-09-11T21:29:32.405Z,79.10
